KMIE/MIE METAR and TAF weather

Enter ICAO airport designator
Station Type Date Time Source
KMIE METAR 2019/04/19 10:27 UTC NOAA

KMIE 191027Z 02010KT 10SM OVC011 07/04 A2961 RMK AO2 CIG 007V014 T00670039 $


Station Type Date Time Source
KMIE Decoded METAR 2019/04/19 10:27 UTC NOAA

MUNCIE DELAWARE JOHNSON, IN, United States (KMIE) 40-14N 85-24W 285M
Apr 19, 2019 - 06:27 AM EDT / 2019.04.19 1027 UTC
Wind: from the NNE (020 degrees) at 12 MPH (10 KT):0
Visibility: 10 mile(s):0
Sky conditions: overcast
Temperature: 44.1 F (6.7 C)
Dew Point: 39.0 F (3.9 C)
Relative Humidity: 82%
Pressure (altimeter): 29.61 in. Hg (1002 hPa)
ob: KMIE 191027Z 02010KT 10SM OVC011 07/04 A2961 RMK AO2 CIG 007V014 T00670039
cycle: 10

Station Type Date Time Source
KMIE TAF UTC NOAA

Error!

Example: see airport list